createdAt,value
2022-12-15T00:00:16.705Z,91.07
2022-12-15T00:03:02.628Z,90.86
2022-12-15T00:05:50.108Z,90.97
2022-12-15T00:08:36.596Z,90.53
2022-12-15T00:11:23.080Z,91.23
2022-12-15T00:14:08.942Z,91.32
2022-12-15T00:16:54.559Z,90.97
2022-12-15T00:19:40.894Z,91.26
2022-12-15T00:22:26.606Z,91.09
2022-12-15T00:25:12.456Z,90.18
2022-12-15T00:27:58.190Z,90.33
2022-12-15T00:30:43.854Z,90.26
2022-12-15T00:33:31.042Z,90.18
2022-12-15T00:36:18.338Z,90.21
2022-12-15T00:38:46.670Z,89.43
2022-12-15T00:41:17.147Z,90.07
2022-12-15T00:43:44.847Z,89.55
2022-12-15T00:46:31.338Z,89.39
2022-12-15T00:48:59.031Z,88.83
2022-12-15T00:51:45.852Z,88.64
2022-12-15T00:54:32.230Z,88.11
2022-12-15T00:57:17.842Z,87.67
2022-12-15T01:00:03.733Z,87.96
2022-12-15T01:02:50.379Z,87.78
2022-12-15T01:05:36.382Z,87.76
2022-12-15T01:08:22.251Z,87.62
2022-12-15T01:11:08.008Z,87.21
2022-12-15T01:13:54.150Z,87.44
2022-12-15T01:16:40.057Z,87.42
2022-12-15T01:19:27.534Z,87.94
2022-12-15T01:21:55.144Z,86.65
2022-12-15T01:24:22.654Z,86.58
2022-12-15T01:26:50.227Z,87.11
2022-12-15T01:29:17.838Z,87.09
2022-12-15T01:31:45.422Z,87.25
2022-12-15T01:34:20.339Z,87.13
2022-12-15T01:36:47.835Z,86.55
2022-12-15T01:39:15.418Z,87.34
2022-12-15T01:41:42.836Z,86.92
2022-12-15T01:44:23.105Z,87.20
2022-12-15T01:46:55.258Z,87.06
2022-12-15T01:49:28.992Z,87.09
2022-12-15T01:52:00.189Z,86.62
2022-12-15T01:54:35.170Z,86.20
2022-12-15T01:57:20.382Z,86.78
2022-12-15T01:59:52.756Z,86.85
2022-12-15T02:02:25.035Z,86.86
2022-12-15T02:04:54.591Z,87.22
2022-12-15T02:07:22.240Z,87.01
2022-12-15T02:09:53.311Z,86.63
2022-12-15T02:12:32.861Z,86.73
2022-12-15T02:15:09.740Z,87.16
2022-12-15T02:18:09.473Z,87.99
2022-12-15T02:20:55.330Z,88.03
2022-12-15T02:23:35.166Z,88.74
2022-12-15T02:26:08.758Z,88.35
2022-12-15T02:28:58.043Z,88.85
2022-12-15T02:31:50.734Z,89.08
2022-12-15T02:34:27.213Z,88.58
2022-12-15T02:37:29.645Z,89.53
2022-12-15T02:39:57.165Z,89.60
2022-12-15T02:42:27.136Z,89.07
2022-12-15T02:45:04.465Z,88.67
2022-12-15T02:47:57.364Z,88.42
2022-12-15T02:50:36.044Z,88.12
2022-12-15T02:53:33.696Z,87.64
2022-12-15T02:56:12.809Z,88.06
2022-12-15T02:59:19.454Z,88.09
2022-12-15T03:02:01.203Z,88.21
2022-12-15T03:04:29.475Z,89.07
2022-12-15T03:07:01.243Z,88.50
2022-12-15T03:09:29.321Z,88.52
2022-12-15T03:11:57.021Z,88.64
2022-12-15T03:14:27.639Z,88.23
2022-12-15T03:16:56.110Z,88.13
2022-12-15T03:19:24.108Z,87.39
2022-12-15T03:21:51.833Z,86.19
2022-12-15T03:24:19.848Z,86.40
2022-12-15T03:26:50.335Z,85.86
2022-12-15T03:29:18.706Z,85.08
2022-12-15T03:31:46.331Z,85.22
2022-12-15T03:34:17.605Z,85.00
2022-12-15T03:36:45.120Z,85.64
2022-12-15T03:39:12.798Z,84.42
2022-12-15T03:41:41.906Z,83.80
2022-12-15T03:44:09.545Z,83.68
2022-12-15T03:46:37.015Z,83.86
2022-12-15T03:49:04.565Z,83.23
2022-12-15T03:51:32.062Z,83.92
2022-12-15T03:53:59.530Z,83.31
2022-12-15T03:56:27.075Z,83.95
2022-12-15T03:58:54.553Z,84.41
2022-12-15T04:01:22.105Z,85.72
2022-12-15T04:03:49.785Z,84.75
2022-12-15T04:06:17.490Z,84.15
2022-12-15T04:08:44.964Z,84.64
2022-12-15T04:11:18.450Z,84.17
2022-12-15T04:13:46.213Z,84.74
2022-12-15T04:16:19.340Z,83.20
2022-12-15T04:19:07.983Z,84.52
2022-12-15T04:21:35.546Z,84.31
2022-12-15T04:24:21.332Z,84.28
2022-12-15T04:27:07.072Z,84.73
2022-12-15T04:29:52.913Z,84.66
2022-12-15T04:32:38.779Z,85.52
2022-12-15T04:35:24.976Z,85.73
2022-12-15T04:38:10.912Z,86.78
2022-12-15T04:40:57.170Z,88.85
2022-12-15T04:43:43.923Z,91.23
2022-12-15T04:46:29.711Z,93.36
2022-12-15T04:49:15.689Z,97.07
2022-12-15T04:52:01.660Z,99.53
2022-12-15T04:54:47.725Z,100.00
2022-12-15T04:57:33.560Z,100.00
2022-12-15T05:00:19.257Z,100.00
2022-12-15T05:03:06.759Z,100.00
2022-12-15T05:05:52.544Z,100.00
2022-12-15T05:08:38.353Z,100.00
2022-12-15T05:11:24.569Z,93.37
2022-12-15T05:14:10.340Z,85.75
2022-12-15T05:16:56.197Z,80.64
2022-12-15T05:19:42.251Z,77.18
2022-12-15T05:22:28.224Z,69.06
2022-12-15T05:25:14.129Z,66.01
2022-12-15T05:27:59.856Z,64.16
2022-12-15T05:30:45.634Z,61.02
2022-12-15T05:33:13.148Z,59.40
2022-12-15T05:35:40.749Z,56.96
2022-12-15T05:38:08.304Z,55.82
2022-12-15T05:40:35.894Z,53.66
2022-12-15T05:43:03.617Z,51.54
2022-12-15T05:45:31.101Z,51.37
2022-12-15T05:47:58.604Z,49.85
2022-12-15T05:50:26.197Z,49.24
2022-12-15T05:52:54.487Z,48.28
2022-12-15T05:55:21.981Z,46.60
2022-12-15T05:57:54.131Z,45.69
2022-12-15T06:00:22.168Z,46.88
2022-12-15T06:02:50.227Z,46.18
2022-12-15T06:05:18.075Z,44.66
2022-12-15T06:07:45.827Z,43.49
2022-12-15T06:10:13.358Z,44.03
2022-12-15T06:12:41.127Z,46.02
2022-12-15T06:15:09.076Z,47.28
2022-12-15T06:17:36.754Z,48.37
2022-12-15T06:20:04.889Z,49.26
2022-12-15T06:22:32.525Z,50.27
2022-12-15T06:25:00.073Z,51.51
2022-12-15T06:27:27.602Z,51.99
2022-12-15T06:29:55.053Z,53.41
2022-12-15T06:32:22.619Z,53.98
2022-12-15T06:34:50.299Z,54.50
2022-12-15T06:37:17.698Z,55.22
2022-12-15T06:39:45.259Z,56.41
2022-12-15T06:42:14.887Z,56.53
2022-12-15T06:44:42.445Z,57.44
2022-12-15T06:47:10.049Z,57.56
2022-12-15T06:49:37.722Z,58.14
2022-12-15T06:52:05.342Z,58.09
2022-12-15T06:54:32.839Z,58.81
2022-12-15T06:57:00.361Z,59.03
2022-12-15T06:59:27.848Z,60.01
2022-12-15T07:01:55.473Z,60.40
2022-12-15T07:04:23.149Z,60.13
2022-12-15T07:06:50.613Z,61.22
2022-12-15T07:09:18.425Z,60.96
2022-12-15T07:11:46.770Z,61.17
2022-12-15T07:14:14.315Z,61.17
2022-12-15T07:16:41.918Z,61.84
2022-12-15T07:19:12.825Z,62.25
2022-12-15T07:21:41.420Z,61.96
2022-12-15T07:24:11.888Z,62.21
2022-12-15T07:26:40.120Z,62.04
2022-12-15T07:29:07.666Z,62.34
2022-12-15T07:31:35.099Z,62.64
2022-12-15T07:34:02.692Z,62.88
2022-12-15T07:36:30.208Z,63.31
2022-12-15T07:39:01.226Z,63.77
2022-12-15T07:41:30.344Z,63.53
2022-12-15T07:43:58.883Z,63.27
2022-12-15T07:46:27.647Z,63.90
2022-12-15T07:48:55.272Z,64.06
2022-12-15T07:51:23.555Z,64.38
2022-12-15T07:53:51.473Z,64.24
2022-12-15T07:56:20.542Z,64.29
2022-12-15T07:58:48.266Z,64.27
2022-12-15T08:01:16.640Z,64.25
2022-12-15T08:03:45.474Z,64.07
2022-12-15T08:06:14.851Z,64.89
2022-12-15T08:08:50.304Z,64.54
2022-12-15T08:11:21.402Z,64.72
2022-12-15T08:14:02.538Z,64.66
2022-12-15T08:16:30.757Z,64.75
2022-12-15T08:18:58.413Z,64.81
2022-12-15T08:21:26.138Z,64.95
2022-12-15T08:23:53.771Z,64.86
2022-12-15T08:26:25.272Z,64.77
2022-12-15T08:29:11.733Z,64.90
2022-12-15T08:31:45.545Z,65.13
2022-12-15T08:34:14.603Z,65.46
2022-12-15T08:36:42.317Z,65.45
2022-12-15T08:39:10.038Z,65.14
2022-12-15T08:41:37.610Z,65.96
2022-12-15T08:44:05.275Z,66.24
2022-12-15T08:46:34.582Z,66.47
2022-12-15T08:49:03.558Z,67.05
2022-12-15T08:51:32.985Z,67.12
2022-12-15T08:54:01.525Z,67.34
2022-12-15T08:56:29.872Z,67.23
2022-12-15T08:59:00.050Z,67.87
2022-12-15T09:01:29.363Z,67.72
2022-12-15T09:03:58.163Z,67.84
2022-12-15T09:06:33.277Z,67.34
2022-12-15T09:09:03.340Z,67.93
2022-12-15T09:11:31.967Z,67.82
2022-12-15T09:13:59.672Z,67.49
2022-12-15T09:16:28.227Z,67.30
2022-12-15T09:18:59.195Z,67.53
2022-12-15T09:21:32.320Z,67.35
2022-12-15T09:24:02.158Z,67.32
2022-12-15T09:26:32.019Z,67.75
2022-12-15T09:29:00.480Z,67.45
2022-12-15T09:31:30.624Z,67.37
2022-12-15T09:33:59.741Z,67.66
2022-12-15T09:36:28.006Z,66.92
2022-12-15T09:38:57.440Z,67.26
2022-12-15T09:41:27.560Z,67.09
2022-12-15T09:43:58.780Z,66.79
2022-12-15T09:46:44.702Z,67.20
2022-12-15T09:49:44.403Z,67.53
2022-12-15T09:52:18.768Z,67.15
2022-12-15T09:54:46.799Z,67.40
2022-12-15T09:57:48.263Z,66.87
2022-12-15T10:00:31.451Z,66.75
2022-12-15T10:03:08.174Z,66.68
2022-12-15T10:06:14.216Z,66.76
2022-12-15T10:08:37.060Z,66.80
2022-12-15T10:11:24.102Z,66.59
2022-12-15T10:14:22.100Z,66.57
2022-12-15T10:17:03.005Z,66.74
2022-12-15T10:20:18.098Z,66.26
2022-12-15T10:22:46.453Z,65.97
2022-12-15T10:25:30.416Z,65.91
2022-12-15T10:28:45.156Z,65.93
2022-12-15T10:31:43.765Z,65.18
2022-12-15T10:34:24.228Z,65.52
2022-12-15T10:36:53.350Z,65.14
2022-12-15T10:39:22.262Z,65.57
2022-12-15T10:42:15.222Z,65.47
2022-12-15T10:44:50.531Z,65.66
2022-12-15T10:47:28.979Z,66.05
2022-12-15T10:50:24.307Z,66.33
2022-12-15T10:52:52.595Z,66.06
2022-12-15T10:55:40.579Z,66.02
2022-12-15T10:58:21.076Z,66.00
2022-12-15T11:01:04.966Z,65.66
2022-12-15T11:03:37.774Z,65.59
2022-12-15T11:06:16.432Z,65.54
2022-12-15T11:08:44.983Z,65.27
2022-12-15T11:11:50.761Z,65.30
2022-12-15T11:14:27.276Z,65.59
2022-12-15T11:16:57.682Z,65.54
2022-12-15T11:19:32.048Z,64.93
2022-12-15T11:22:13.044Z,64.69
2022-12-15T11:24:50.468Z,65.02
2022-12-15T11:27:32.318Z,65.28
2022-12-15T11:30:05.718Z,65.79
2022-12-15T11:32:35.665Z,65.96
2022-12-15T11:35:03.520Z,65.96
2022-12-15T11:37:42.083Z,66.57
2022-12-15T11:40:41.129Z,66.28
2022-12-15T11:43:27.213Z,66.23
2022-12-15T11:46:17.611Z,66.63
2022-12-15T11:49:26.935Z,66.04
2022-12-15T11:52:06.666Z,65.91
2022-12-15T11:54:54.187Z,65.93
2022-12-15T11:57:36.769Z,66.40
2022-12-15T12:00:21.876Z,66.19
2022-12-15T12:02:49.532Z,66.24
2022-12-15T12:06:00.909Z,66.85
2022-12-15T12:08:47.460Z,66.31
2022-12-15T12:11:43.473Z,66.58
2022-12-15T12:14:23.153Z,66.93
2022-12-15T12:17:06.669Z,66.96
2022-12-15T12:19:44.451Z,66.84
2022-12-15T12:22:24.321Z,66.96
2022-12-15T12:25:11.267Z,66.93
2022-12-15T12:27:48.759Z,66.59
2022-12-15T12:30:24.425Z,67.31
2022-12-15T12:33:03.669Z,67.35
2022-12-15T12:35:41.626Z,68.06
2022-12-15T12:38:14.015Z,67.97
2022-12-15T12:40:41.529Z,68.28
2022-12-15T12:43:14.142Z,68.12
2022-12-15T12:46:23.529Z,68.30
2022-12-15T12:49:12.831Z,69.01
2022-12-15T12:51:42.394Z,68.66
2022-12-15T12:54:31.656Z,69.57
2022-12-15T12:56:59.278Z,69.28
2022-12-15T12:59:29.833Z,69.76
2022-12-15T13:01:58.515Z,69.55
2022-12-15T13:04:29.095Z,70.17
2022-12-15T13:06:58.671Z,69.86
2022-12-15T13:09:43.491Z,70.33
2022-12-15T13:12:50.700Z,69.48
2022-12-15T13:15:29.144Z,69.94
2022-12-15T13:18:17.417Z,70.37
2022-12-15T13:20:50.541Z,70.29
2022-12-15T13:23:36.836Z,70.46
2022-12-15T13:26:12.847Z,70.61
2022-12-15T13:28:45.572Z,70.97
2022-12-15T13:31:22.391Z,71.11
2022-12-15T13:33:50.096Z,71.72
2022-12-15T13:36:42.293Z,71.49
2022-12-15T13:39:12.770Z,72.02
2022-12-15T13:44:52.069Z,71.96
2022-12-15T13:47:19.527Z,71.66
2022-12-15T13:55:46.553Z,72.57
2022-12-15T13:58:21.347Z,72.61
2022-12-15T14:00:52.316Z,72.89
2022-12-15T14:03:20.440Z,73.29
2022-12-15T14:05:54.303Z,73.52
2022-12-15T14:08:24.415Z,73.50
2022-12-15T14:10:56.351Z,73.72
2022-12-15T14:13:31.600Z,73.27
2022-12-15T14:16:05.203Z,73.16
2022-12-15T14:18:35.422Z,74.10
2022-12-15T14:21:08.626Z,74.28
2022-12-15T14:23:52.512Z,73.52
2022-12-15T14:26:32.019Z,74.25
2022-12-15T14:29:06.414Z,74.58
2022-12-15T14:31:34.220Z,74.87
2022-12-15T14:34:11.263Z,74.71
2022-12-15T14:36:41.662Z,74.95
2022-12-15T14:39:29.843Z,75.40
2022-12-15T14:41:59.344Z,74.72
2022-12-15T14:44:38.159Z,74.08
2022-12-15T14:47:17.255Z,73.89
2022-12-15T14:49:46.551Z,74.19
2022-12-15T14:52:38.439Z,73.77
2022-12-15T14:55:37.144Z,74.31
2022-12-15T14:58:32.513Z,74.47
2022-12-15T15:01:01.697Z,73.00
2022-12-15T15:03:16.563Z,71.88
2022-12-15T15:03:38.559Z,73.66
2022-12-15T15:06:12.205Z,73.17
2022-12-15T15:08:46.652Z,72.31
2022-12-15T15:11:37.861Z,71.95
2022-12-15T15:14:12.660Z,71.42
2022-12-15T15:16:40.920Z,71.54
2022-12-15T15:19:15.583Z,71.37
2022-12-15T15:21:43.214Z,71.44
2022-12-15T15:24:11.049Z,70.73
2022-12-15T15:26:40.414Z,70.90
2022-12-15T15:29:32.776Z,71.00
2022-12-15T15:32:17.955Z,71.43
2022-12-15T15:34:47.263Z,71.48
2022-12-15T15:37:18.250Z,71.93
2022-12-15T15:39:48.776Z,71.60
2022-12-15T15:42:16.609Z,72.09
2022-12-15T15:44:44.233Z,71.94
2022-12-15T15:47:32.072Z,71.72
2022-12-15T15:50:00.748Z,71.53
2022-12-15T15:52:32.154Z,71.50
2022-12-15T15:54:59.959Z,71.43
2022-12-15T15:57:27.582Z,71.62
2022-12-15T15:59:55.186Z,71.26
2022-12-15T16:02:22.836Z,71.07
2022-12-15T16:04:51.075Z,70.58
2022-12-15T16:07:25.981Z,70.90
2022-12-15T16:09:54.538Z,70.54
2022-12-15T16:12:30.223Z,70.82
2022-12-15T16:14:57.939Z,70.02
2022-12-15T16:17:25.754Z,69.87
2022-12-15T16:19:53.301Z,69.43
2022-12-15T16:22:22.736Z,69.25
2022-12-15T16:24:50.366Z,68.50
2022-12-15T16:27:18.193Z,68.23
2022-12-15T16:29:46.122Z,68.44
2022-12-15T16:32:13.594Z,67.39
2022-12-15T16:34:42.273Z,67.91
2022-12-15T16:37:40.388Z,68.05
2022-12-15T16:40:16.949Z,67.28
2022-12-15T16:42:48.191Z,66.74
2022-12-15T16:45:18.350Z,65.96
2022-12-15T16:47:46.750Z,65.59
2022-12-15T16:50:16.539Z,65.65
2022-12-15T16:52:47.780Z,65.55
2022-12-15T16:55:25.405Z,65.13
2022-12-15T16:58:03.801Z,65.07
2022-12-15T17:00:36.002Z,65.23
2022-12-15T17:03:04.168Z,64.65
2022-12-15T17:05:34.546Z,64.50
2022-12-15T17:08:08.770Z,64.81
2022-12-15T17:10:36.793Z,64.34
2022-12-15T17:13:39.183Z,63.99
2022-12-15T17:16:14.709Z,63.93
2022-12-15T17:18:45.729Z,64.14
2022-12-15T17:21:26.921Z,64.35
2022-12-15T17:24:00.798Z,63.48
2022-12-15T17:26:31.149Z,63.31
2022-12-15T17:29:08.052Z,63.46
2022-12-15T17:31:37.669Z,63.21
2022-12-15T17:34:28.053Z,63.79
2022-12-15T17:37:00.317Z,63.58
2022-12-15T17:39:28.684Z,63.18
2022-12-15T17:42:00.973Z,63.49
2022-12-15T17:44:37.351Z,63.27
2022-12-15T17:47:07.610Z,62.95
2022-12-15T17:49:38.663Z,63.61
2022-12-15T17:52:34.742Z,63.85
2022-12-15T17:55:08.344Z,63.16
2022-12-15T17:57:35.877Z,63.22
2022-12-15T18:00:06.607Z,63.31
2022-12-15T18:02:34.193Z,63.09
2022-12-15T18:05:02.037Z,62.64
2022-12-15T18:07:31.170Z,62.86
2022-12-15T18:09:58.730Z,61.27
2022-12-15T18:12:27.487Z,60.54
2022-12-15T18:14:56.488Z,60.30
2022-12-15T18:17:24.750Z,59.17
2022-12-15T18:19:52.285Z,58.08
2022-12-15T18:22:24.724Z,57.22
2022-12-15T18:24:53.920Z,56.98
2022-12-15T18:27:27.389Z,55.86
2022-12-15T18:29:55.468Z,55.31
2022-12-15T18:32:25.781Z,54.40
2022-12-15T18:34:54.365Z,54.81
2022-12-15T18:37:24.093Z,54.62
2022-12-15T18:39:52.093Z,54.82
2022-12-15T18:42:21.426Z,55.54
2022-12-15T18:44:51.991Z,55.99
2022-12-15T18:47:22.593Z,56.11
2022-12-15T18:49:50.444Z,55.89
2022-12-15T18:52:28.705Z,55.32
2022-12-15T18:54:59.119Z,54.92
2022-12-15T18:57:32.804Z,54.13
2022-12-15T19:00:01.969Z,53.98
2022-12-15T19:02:30.460Z,53.59
2022-12-15T19:04:58.017Z,53.83
2022-12-15T19:07:25.686Z,53.19
2022-12-15T19:09:53.767Z,53.94
2022-12-15T19:12:21.402Z,53.79
2022-12-15T19:14:51.695Z,53.75
2022-12-15T19:17:40.663Z,53.26
2022-12-15T19:20:38.547Z,53.69
2022-12-15T19:23:07.253Z,53.12
2022-12-15T19:25:35.698Z,52.89
2022-12-15T19:28:03.181Z,53.39
2022-12-15T19:30:41.606Z,53.23
2022-12-15T19:33:11.693Z,53.01
2022-12-15T19:35:41.409Z,52.85
2022-12-15T19:38:19.796Z,52.71
2022-12-15T19:40:47.999Z,52.15
2022-12-15T19:43:18.418Z,52.40
2022-12-15T19:45:46.868Z,52.71
2022-12-15T19:48:17.561Z,52.37
2022-12-15T19:50:50.336Z,52.11
2022-12-15T19:53:24.361Z,51.69
2022-12-15T19:55:57.754Z,51.14
2022-12-15T19:58:29.498Z,50.95
2022-12-15T20:00:59.652Z,51.78
2022-12-15T20:03:28.419Z,51.52
2022-12-15T20:05:57.776Z,51.72
2022-12-15T20:08:29.147Z,51.56
2022-12-15T20:10:57.182Z,51.27
2022-12-15T20:13:26.717Z,50.51
2022-12-15T20:15:54.987Z,50.07
2022-12-15T20:18:22.819Z,50.01
2022-12-15T20:20:50.843Z,49.80
2022-12-15T20:23:29.659Z,50.10
2022-12-15T20:25:57.977Z,49.05
2022-12-15T20:28:30.155Z,48.98
2022-12-15T20:30:58.518Z,48.90
2022-12-15T20:33:26.093Z,49.21
2022-12-15T20:35:55.068Z,49.00
2022-12-15T20:38:31.880Z,48.92
2022-12-15T20:41:01.410Z,48.65
2022-12-15T20:43:32.020Z,48.99
2022-12-15T20:46:12.564Z,49.58
2022-12-15T20:48:40.546Z,49.70
2022-12-15T20:51:12.483Z,50.20
2022-12-15T20:53:39.957Z,49.96
2022-12-15T20:56:07.891Z,51.24
2022-12-15T20:58:41.571Z,50.80
2022-12-15T21:01:22.122Z,51.65
2022-12-15T21:03:52.133Z,51.97
2022-12-15T21:06:20.121Z,51.39
2022-12-15T21:08:47.963Z,51.50
2022-12-15T21:11:19.278Z,52.16
2022-12-15T21:13:49.389Z,53.05
2022-12-15T21:16:22.751Z,52.69
2022-12-15T21:19:18.517Z,53.36
2022-12-15T21:21:43.431Z,52.93
2022-12-15T21:24:20.061Z,52.53
2022-12-15T21:26:47.637Z,52.01
2022-12-15T21:29:21.133Z,51.74
2022-12-15T21:31:48.826Z,51.77
2022-12-15T21:34:16.762Z,51.87
2022-12-15T21:36:47.855Z,51.29
2022-12-15T21:39:24.293Z,52.15
2022-12-15T21:41:51.959Z,52.22
2022-12-15T21:44:19.417Z,52.37
2022-12-15T21:46:47.208Z,52.60
2022-12-15T21:49:15.858Z,52.65
2022-12-15T21:51:47.444Z,52.46
2022-12-15T21:54:21.511Z,53.01
2022-12-15T21:56:51.520Z,52.97
2022-12-15T21:59:25.293Z,53.36
2022-12-15T22:01:55.055Z,52.43
2022-12-15T22:04:49.508Z,52.97
2022-12-15T22:07:19.723Z,52.75
2022-12-15T22:09:47.194Z,52.73
2022-12-15T22:12:24.481Z,52.44
2022-12-15T22:14:52.286Z,53.21
2022-12-15T22:17:21.967Z,52.75
2022-12-15T22:19:49.676Z,52.96
2022-12-15T22:22:17.288Z,53.63
2022-12-15T22:24:45.036Z,53.17
2022-12-15T22:27:22.995Z,54.11
2022-12-15T22:29:50.935Z,53.85
2022-12-15T22:32:18.462Z,54.11
2022-12-15T22:34:46.036Z,54.18
2022-12-15T22:37:13.636Z,54.53
2022-12-15T22:39:41.142Z,54.32
2022-12-15T22:42:16.320Z,54.90
2022-12-15T22:44:44.809Z,54.62
2022-12-15T22:47:12.361Z,54.45
2022-12-15T22:49:41.523Z,54.92
2022-12-15T22:52:21.792Z,55.26
2022-12-15T22:54:49.346Z,54.85
2022-12-15T22:57:28.953Z,55.10
2022-12-15T23:00:03.173Z,55.07
2022-12-15T23:02:43.356Z,54.73
2022-12-15T23:05:14.059Z,54.62
2022-12-15T23:07:42.048Z,55.12
2022-12-15T23:10:29.943Z,55.01
2022-12-15T23:12:57.381Z,55.03
2022-12-15T23:15:45.699Z,54.69
2022-12-15T23:18:13.957Z,54.72
2022-12-15T23:20:42.364Z,54.43
2022-12-15T23:23:10.216Z,54.68
2022-12-15T23:25:38.189Z,54.61
2022-12-15T23:28:05.691Z,54.52
2022-12-15T23:30:33.186Z,54.55
2022-12-15T23:33:00.702Z,54.68
2022-12-15T23:35:28.158Z,55.06
2022-12-15T23:37:55.938Z,55.12
2022-12-15T23:40:23.492Z,54.98
2022-12-15T23:42:51.421Z,55.53
2022-12-15T23:45:20.082Z,55.24
2022-12-15T23:47:47.591Z,55.33
2022-12-15T23:50:15.134Z,55.02
2022-12-15T23:52:42.663Z,55.41
2022-12-15T23:55:10.429Z,54.89
2022-12-15T23:57:38.966Z,55.50
